Data for 09/10/2007

Time Sea-Level Adjusted Pressure Absolute Pressure Temperature Relative Humidity Dew Point   
(mb) (inHg) (mb) (inHg) (C) (F) (%) (C) (F)
00:05 1028 30.36 857 25.31 4.3 39.7 79 0.9 33.7
00:10 1028 30.36 857 25.31 4.3 39.7 79 0.9 33.6
00:15 1028 30.36 857 25.31 4.2 39.5 79 0.8 33.4
00:20 1028 30.36 857 25.31 4.2 39.5 78 0.7 33.2
00:25 1028 30.36 857 25.31 4.4 39.9 77 0.6 33.2
00:30 1028 30.36 857 25.31 4.5 40.1 77 0.8 33.4
00:35 1028 30.36 857 25.31 4.3 39.7 77 0.7 33.2
00:40 1028 30.36 857 25.31 4.1 39.4 78 0.7 33.2
00:45 1028 30.36 857 25.31 4.1 39.4 78 0.6 33.2
00:50 1028 30.36 857 25.31 4.1 39.4 79 0.8 33.4
00:55 1027 30.33 857 25.31 4 39.2 78 0.6 33.1
01:00 1028 30.36 857 25.31 3.8 38.9 79 0.5 32.9
01:05 1027 30.33 857 25.31 3.7 38.7 79 0.5 32.9
01:10 1027 30.33 857 25.31 3.6 38.5 79 0.3 32.6
01:15 1027 30.33 856 25.28 3.7 38.7 79 0.4 32.7
01:20 1027 30.33 856 25.28 3.7 38.7 78 0.3 32.5
01:25 1027 30.33 856 25.28 3.8 38.9 79 0.5 32.8
01:30 1027 30.33 856 25.28 3.9 39.1 78 0.4 32.7
01:35 1027 30.33 857 25.31 3.9 39.1 78 0.4 32.7
01:40 1027 30.33 857 25.31 3.9 38.9 78 0.4 32.7
01:45 1027 30.33 857 25.31 3.7 38.6 80 0.5 32.8
01:50 1027 30.33 857 25.31 3.4 38.1 81 0.5 32.8
01:55 1027 30.33 857 25.31 3.5 38.3 80 0.4 32.7
02:00 1027 30.33 857 25.31 3.6 38.5 79 0.4 32.7
02:05 1028 30.36 857 25.31 3.8 38.8 79 0.4 32.7
02:10 1028 30.36 857 25.31 3.9 39 78 0.4 32.7
02:15 1028 30.36 857 25.31 3.9 39.1 78 0.5 32.8
02:20 1028 30.36 857 25.31 4 39.2 78 0.5 32.9
02:25 1028 30.36 857 25.31 4 39.2 78 0.5 32.9
02:30 1028 30.36 857 25.31 3.9 39 78 0.5 32.9
02:35 1028 30.36 857 25.31 3.7 38.7 79 0.4 32.7
02:40 1028 30.36 857 25.31 3.7 38.6 79 0.4 32.6
02:45 1028 30.36 857 25.31 3.6 38.5 78 0.1 32.3
02:50 1028 30.36 857 25.31 3.5 38.4 77 -0.1 31.9
02:55 1028 30.36 857 25.31 3.6 38.4 77 -0.1 31.8
03:00 1028 30.36 857 25.31 3.5 38.3 77 -0.2 31.6
03:05 1028 30.36 857 25.31 3.7 38.7 75 -0.2 31.6
03:10 1028 30.36 857 25.31 3.6 38.5 75 -0.3 31.5
03:15 1028 30.36 857 25.31 3.5 38.3 75 -0.5 31.1
03:20 1028 30.36 857 25.31 3.5 38.3 75 -0.5 31.1
03:25 1028 30.36 857 25.31 3.6 38.5 74 -0.7 30.8
03:30 1028 30.36 857 25.31 4 39.3 71 -0.7 30.8
03:35 1028 30.36 857 25.31 4.3 39.8 71 -0.5 31
03:40 1028 30.36 857 25.31 4.2 39.6 70 -0.8 30.6
03:45 1028 30.36 857 25.31 4 39.3 73 -0.4 31.3
03:50 1028 30.36 857 25.31 3.8 38.9 75 -0.2 31.6
03:55 1028 30.36 857 25.31 3.7 38.7 75 -0.3 31.4
04:00 1028 30.36 857 25.31 3.6 38.5 76 -0.3 31.4
04:05 1028 30.36 857 25.31 3.5 38.3 76 -0.4 31.3
04:10 1028 30.36 857 25.31 3.5 38.3 76 -0.3 31.4
04:15 1028 30.36 857 25.31 3.2 37.7 78 -0.3 31.5
04:20 1028 30.36 857 25.31 3 37.4 77 -0.7 30.8
04:25 1028 30.36 857 25.31 3 37.5 77 -0.7 30.8
04:30 1028 30.36 857 25.31 2.9 37.3 77 -0.7 30.7
04:35 1028 30.36 857 25.31 2.9 37.3 77 -0.8 30.6
04:40 1028 30.36 857 25.31 3 37.4 75 -1.1 30.1
04:45 1028 30.36 857 25.31 3 37.3 75 -1.1 30.1
04:50 1028 30.36 857 25.31 2.8 37 75 -1.3 29.7
04:55 1028 30.36 857 25.31 2.9 37.2 74 -1.3 29.6
05:00 1028 30.36 857 25.31 3 37.3 74 -1.2 29.9
05:05 1028 30.36 857 25.31 2.8 37 76 -1.1 30.1
05:10 1028 30.36 857 25.31 2.6 36.7 77 -1 30.1
05:15 1028 30.36 857 25.31 2.6 36.6 76 -1.2 29.9
05:20 1028 30.36 857 25.31 2.4 36.4 77 -1.2 29.9
05:25 1028 30.36 857 25.31 2.4 36.3 77 -1.2 29.8
05:30 1028 30.36 857 25.31 2.4 36.4 77 -1.2 29.9
05:35 1028 30.36 857 25.31 2.7 36.8 76 -1.2 29.9
05:40 1028 30.36 857 25.31 3 37.4 74 -1.1 29.9
05:45 1028 30.36 857 25.31 3 37.4 74 -1.1 29.9
05:50 1028 30.36 857 25.31 2.9 37.3 74 -1.3 29.6
05:55 1028 30.36 857 25.31 2.9 37.2 72 -1.6 29.1
06:00 1028 30.36 857 25.31 2.7 36.9 73 -1.6 29.1
06:05 1028 30.36 857 25.31 2.6 36.7 72 -1.9 28.5
06:10 1028 30.36 857 25.31 3.1 37.6 66 -2.6 27.4
06:15 1028 30.36 857 25.31 3.7 38.6 65 -2.2 28
06:20 1028 30.36 857 25.31 3.4 38.1 69 -1.7 28.9
06:25 1028 30.36 857 25.31 2.9 37.2 66 -2.9 26.7
06:30 1028 30.36 857 25.31 2.8 37.1 67 -2.8 27
06:35 1028 30.36 857 25.31 2.3 36.2 70 -2.6 27.3
06:40 1028 30.36 857 25.31 2.1 35.8 66 -3.5 25.6
06:45 1028 30.36 857 25.31 2.5 36.5 66 -3.2 26.2
06:50 1028 30.36 857 25.31 2.7 36.9 64 -3.5 25.8
06:55 1028 30.36 857 25.31 2.9 37.2 63 -3.4 25.8
07:00 1028 30.36 857 25.31 3 37.4 63 -3.4 25.9
07:05 1028 30.36 857 25.31 2.9 37.2 66 -2.9 26.8
07:10 1028 30.36 858 25.34 2.4 36.3 71 -2.4 27.7
07:15 1029 30.39 858 25.34 2.4 36.3 72 -2.2 28.1
07:20 1029 30.39 858 25.34 2.5 36.5 72 -2 28.4
07:25 1029 30.39 858 25.34 2.5 36.5 72 -2 28.3
07:30 1029 30.39 858 25.34 2.6 36.6 71 -2.1 28.2
07:35 1029 30.39 858 25.34 2.7 36.9 71 -2.1 28.2
07:40 1029 30.39 858 25.34 2.8 37 70 -2 28.3
07:45 1029 30.39 858 25.34 2.5 36.6 72 -2.1 28.3
07:50 1029 30.39 858 25.34 2.4 36.4 71 -2.2 28
07:55 1029 30.39 858 25.34 2.6 36.7 71 -2 28.3
08:00 1029 30.39 858 25.34 2.9 37.2 70 -2 28.3
08:05 1029 30.39 858 25.34 3.1 37.6 69 -2 28.3
08:10 1029 30.39 858 25.34 3.5 38.3 68 -1.9 28.6
08:15 1029 30.39 858 25.34 4 39.2 66 -1.8 28.7
08:20 1029 30.39 858 25.34 4.4 40 65 -1.6 29
08:25 1029 30.39 858 25.34 4.8 40.6 63 -1.7 29
08:30 1029 30.39 858 25.34 5.2 41.4 62 -1.5 29.3
08:35 1029 30.39 858 25.34 5.6 42 60 -1.6 29.2
08:40 1029 30.39 858 25.34 6 42.9 57 -1.7 28.9
08:45 1029 30.39 858 25.34 6.2 43.1 59 -1.2 29.8
08:50 1029 30.39 858 25.34 6.5 43.7 57 -1.4 29.4
08:55 1029 30.39 858 25.34 6.9 44.4 57 -1.1 30
09:00 1029 30.39 858 25.34 7.3 45.1 55 -1.1 30
09:05 1029 30.39 858 25.34 7.7 45.9 54 -1 30.1
09:10 1029 30.39 858 25.34 8 46.4 53 -1 30.3
09:15 1029 30.39 858 25.34 8.6 47.4 50 -1.2 29.8
09:20 1029 30.39 858 25.34 9.1 48.4 46 -2 28.5
09:25 1029 30.39 858 25.34 9.5 49.2 46 -1.3 29.6
09:30 1029 30.39 858 25.34 9.5 49.1 49 -0.6 31
09:35 1029 30.39 858 25.34 9.6 49.2 47 -1.2 29.8
09:40 1029 30.39 858 25.34 10.2 50.4 45 -1.1 30
09:45 1029 30.39 858 25.34 10.9 51.5 43 -1 30.1
09:50 1029 30.39 858 25.34 11.2 52.1 43 -1 30.1
09:55 1029 30.39 858 25.34 11.4 52.4 43 -0.8 30.5
10:00 1029 30.39 858 25.34 12 53.5 39 -1.7 29
10:05 1029 30.39 858 25.34 12.2 53.9 41 -0.7 30.7
10:10 1029 30.39 858 25.34 11.9 53.4 41 -0.8 30.5
10:15 1029 30.39 858 25.34 11.8 53.2 41 -1 30.2
10:20 1029 30.39 858 25.34 12.3 54.1 39 -1.1 30
10:25 1029 30.39 858 25.34 12.9 55.2 35 -2 28.4
10:30 1029 30.39 858 25.34 13.3 55.9 35 -1.6 29.1
10:35 1029 30.39 858 25.34 13.3 56 34 -2.1 28.2
10:40 1029 30.39 858 25.34 13.7 56.7 35 -1.5 29.2
10:45 1029 30.39 858 25.34 13.8 56.9 35 -1.4 29.4
10:50 1029 30.39 858 25.34 13.6 56.5 35 -1.3 29.6
10:55 1029 30.39 858 25.34 14.2 57.5 34 -1.5 29.3
11:00 1029 30.39 858 25.34 13.6 56.4 35 -1.7 28.9
11:05 1029 30.39 858 25.34 13.5 56.3 35 -1.5 29.3
11:10 1028 30.36 858 25.34 13.5 56.3 34 -2 28.4
11:15 1028 30.36 858 25.34 14.5 58 33 -1.5 29.3
11:20 1028 30.36 858 25.34 15.5 59.9 31 -1.6 29.1
11:25 1028 30.36 858 25.34 15.4 59.7 31 -1.7 29
11:30 1028 30.36 858 25.34 15.6 60 30 -1.6 29.1
11:35 1028 30.36 858 25.34 15.8 60.4 30 -1.5 29.3
11:40 1028 30.36 858 25.34 16.4 61.5 28 -2 28.5
11:45 1028 30.36 858 25.34 16.7 62 29 -1.4 29.5
11:50 1028 30.36 858 25.34 17 62.5 28 -1.4 29.4
11:55 1028 30.36 857 25.31 16.8 62.3 30 -0.5 31.1
12:00 1028 30.36 857 25.31 16.4 61.4 28 -2 28.4
12:05 1028 30.36 857 25.31 16.9 62.3 28 -1.7 28.9
12:10 1028 30.36 857 25.31 17.4 63.2 27 -1.5 29.3
12:15 1028 30.36 857 25.31 17.5 63.4 26 -2 28.4
12:20 1028 30.36 857 25.31 17.2 63 27 -1.6 29
12:25 1028 30.36 857 25.31 16.7 62.1 27 -2.4 27.6
12:30 1028 30.36 857 25.31 16.8 62.3 25 -3.3 26
12:35 1028 30.36 857 25.31 17.3 63.1 24 -3.4 25.9
12:40 1028 30.36 857 25.31 17.1 62.7 25 -2.8 27
12:45 1028 30.36 857 25.31 16.3 61.4 24 -4 24.9
12:50 1028 30.36 857 25.31 17.1 62.8 22 -4.4 24.1
12:55 1028 30.36 857 25.31 17.9 64.1 21 -4.9 23.2
13:00 1028 30.36 857 25.31 17.6 63.6 22 -4.6 23.8
13:05 1028 30.36 857 25.31 17.7 63.9 23 -3.3 26
13:10 1028 30.36 857 25.31 18.5 65.3 21 -4.1 24.6
13:15 1028 30.36 857 25.31 19 66.1 22 -3.2 26.2
13:20 1028 30.36 857 25.31 18.8 65.9 21 -4.1 24.7
13:25 1028 30.36 857 25.31 18.6 65.4 21 -4.1 24.7
13:30 1027 30.33 857 25.31 18 64.4 21 -4.6 23.7
13:35 1027 30.33 857 25.31 19.1 66.3 19 -5.2 22.7
13:40 1027 30.33 857 25.31 19.3 66.7 19 -4.8 23.4
13:45 1027 30.33 857 25.31 19 66.3 19 -5 23.1
13:50 1027 30.33 857 25.31 19.3 66.7 20 -4.4 24.1
13:55 1027 30.33 856 25.28 19.8 67.7 18 -4.7 23.5
14:00 1027 30.33 856 25.28 20.3 68.5 18 -4.3 24.2
14:05 1027 30.33 856 25.28 20.6 69 18 -4.3 24.3
14:10 1027 30.33 856 25.28 20.6 69.1 18 -4.3 24.2
14:15 1027 30.33 856 25.28 20.6 69.1 18 -4.7 23.6
14:20 1027 30.33 856 25.28 19.9 67.7 18 -4.8 23.3
14:25 1027 30.33 856 25.28 19.4 66.9 19 -4.7 23.5
14:30 1027 30.33 856 25.28 20.2 68.4 17 -5.5 22
14:35 1027 30.33 856 25.28 19.7 67.5 17 -5.6 22
14:40 1027 30.33 856 25.28 19.9 67.8 17 -5.9 21.5
14:45 1027 30.33 856 25.28 20.5 68.9 17 -5.2 22.7
14:50 1027 30.33 856 25.28 20.7 69.3 16 -6.2 20.9
14:55 1027 30.33 856 25.28 21.4 70.5 15 -6 21.2
15:00 1027 30.33 856 25.28 21.4 70.5 15 -6.1 21
15:05 1027 30.33 856 25.28 21.4 70.5 16 -5.4 22.3
15:10 1027 30.33 856 25.28 21.1 70.1 17 -5 23.1
15:15 1027 30.33 856 25.28 21 69.9 15 -6.5 20.3
15:20 1027 30.33 856 25.28 21 69.8 16 -5.3 22.5
15:25 1027 30.33 856 25.28 20.7 69.2 18 -4.5 23.8
15:30 1027 30.33 856 25.28 20.3 68.6 17 -5.1 22.9
15:35 1027 30.33 856 25.28 20.3 68.6 18 -4.6 23.8
15:40 1027 30.33 856 25.28 20.5 68.8 18 -4.8 23.3
15:45 1027 30.33 856 25.28 20.6 69 17 -5.3 22.5
15:50 1027 30.33 856 25.28 20.8 69.4 17 -5.1 22.8
15:55 1027 30.33 856 25.28 19.9 67.9 17 -5.5 22.2
16:00 1026 30.3 856 25.28 19.9 67.8 18 -5 23
16:05 1026 30.3 856 25.28 20.5 68.8 18 -4.8 23.3
16:10 1026 30.3 856 25.28 21.4 70.5 15 -5.8 21.6
16:15 1026 30.3 856 25.28 21.2 70.2 15 -6.2 20.9
16:20 1026 30.3 856 25.28 21 69.9 18 -4.3 24.3
16:25 1026 30.3 856 25.28 20.7 69.2 18 -4.1 24.6
16:30 1026 30.3 855 25.25 21.5 70.6 15 -5.8 21.6
16:35 1026 30.3 855 25.25 22.1 71.8 15 -5.7 21.8
16:40 1026 30.3 855 25.25 22.4 72.4 15 -5 23
16:45 1026 30.3 855 25.25 22 71.5 17 -4.2 24.5
16:50 1026 30.3 855 25.25 20.8 69.4 18 -4.5 23.8
16:55 1026 30.3 855 25.25 20.9 69.7 17 -5.1 22.8
17:00 1026 30.3 855 25.25 20.3 68.5 17 -5.4 22.3
17:05 1026 30.3 855 25.25 20.1 68.3 18 -4.6 23.6
17:10 1026 30.3 855 25.25 20.9 69.6 17 -4.7 23.6
17:15 1026 30.3 855 25.25 21.6 70.9 16 -5 23
17:20 1026 30.3 855 25.25 21.9 71.5 15 -5.4 22.2
17:25 1026 30.3 855 25.25 21.1 70 17 -4.4 24.1
17:30 1026 30.3 855 25.25 21.3 70.3 15 -6.2 20.8
17:35 1026 30.3 855 25.25 21.9 71.4 15 -5.5 22
17:40 1026 30.3 855 25.25 21.7 71.1 16 -5.4 22.2
17:45 1026 30.3 855 25.25 22.6 72.6 14 -5.6 21.8
17:50 1026 30.3 855 25.25 22.5 72.5 15 -5.3 22.5
17:55 1026 30.3 855 25.25 22.3 72.1 15 -5.3 22.5
18:00 1026 30.3 855 25.25 21.7 71 15 -5.8 21.5
18:05 1026 30.3 855 25.25 21.7 71.1 15 -5.7 21.8
18:10 1026 30.3 855 25.25 21.9 71.3 15 -5.6 21.9
18:15 1026 30.3 855 25.25 21.5 70.8 15 -5.7 21.8
18:20 1026 30.3 855 25.25 21.2 70.1 16 -5.2 22.6
18:25 1026 30.3 855 25.25 20.7 69.3 17 -4.8 23.4
18:30 1026 30.3 855 25.25 20.2 68.4 18 -4.9 23.2
18:35 1026 30.3 855 25.25 20.1 68.1 19 -4.1 24.7
18:40 1025 30.27 855 25.25 20 67.9 20 -3.3 26
18:45 1025 30.27 855 25.25 19.6 67.3 20 -4 24.8
18:50 1025 30.27 855 25.25 19.5 67.1 21 -3.4 25.8
18:55 1025 30.27 855 25.25 19.5 67 21 -3.4 25.9
19:00 1025 30.27 855 25.25 19.4 66.9 21 -3.5 25.7
19:05 1025 30.27 854 25.22 19.4 67 21 -3.4 25.8
19:10 1025 30.27 854 25.22 19.2 66.6 20 -4.1 24.6
19:15 1025 30.27 854 25.22 19.1 66.4 28 0.5 33
19:20 1025 30.27 854 25.22 19.2 66.5 21 -3.5 25.7
19:25 1025 30.27 854 25.22 19.1 66.3 18 -5.5 22.1
19:30 1025 30.27 854 25.22 19 66.3 19 -5.2 22.6
19:35 1025 30.27 854 25.22 19 66.2 19 -5.2 22.7
19:40 1025 30.27 854 25.22 18.9 66 27 -0.3 31.5
19:45 1025 30.27 854 25.22 18.1 64.5 31 0.9 33.6
19:50 1025 30.27 854 25.22 17.3 63.2 38 2.9 37.3
19:55 1025 30.27 854 25.22 16.7 62 38 2.3 36.1
20:00 1025 30.27 854 25.22 16 60.7 42 3.2 37.8
20:05 1025 30.27 854 25.22 15.8 60.5 37 1.4 34.6
20:10 1025 30.27 854 25.22 15.4 59.8 40 1.9 35.4
20:15 1025 30.27 854 25.22 15.1 59.3 39 1.5 34.7
20:20 1025 30.27 854 25.22 14.7 58.4 42 2.1 35.8
20:25 1025 30.27 854 25.22 14.6 58.3 39 0.9 33.7
20:30 1025 30.27 854 25.22 14.4 57.8 43 2.1 35.8
20:35 1025 30.27 854 25.22 13.8 56.8 45 2.2 36
20:40 1025 30.27 854 25.22 13.2 55.7 43 0.8 33.5
20:45 1025 30.27 854 25.22 13.2 55.7 39 -0.2 31.6
20:50 1025 30.27 854 25.22 13.2 55.7 40 -0.1 31.8
20:55 1025 30.27 854 25.22 13 55.4 38 -0.9 30.3
21:00 1025 30.27 854 25.22 13.1 55.6 36 -1.6 29.1
21:05 1025 30.27 854 25.22 13.4 56 37 -1.1 30.1
21:10 1025 30.27 854 25.22 13.3 55.9 36 -1.5 29.2
21:15 1025 30.27 854 25.22 13.2 55.8 35 -1.7 28.9
21:20 1025 30.27 854 25.22 13.3 56 35 -1.6 29.1
21:25 1025 30.27 854 25.22 13.3 55.9 36 -1.2 29.8
21:30 1025 30.27 854 25.22 13.1 55.5 37 -1.2 29.8
21:35 1025 30.27 854 25.22 12.8 55 35 -2.2 28
21:40 1025 30.27 854 25.22 12.7 54.8 36 -1.8 28.7
21:45 1025 30.27 854 25.22 12.6 54.7 35 -2.3 27.9
21:50 1025 30.27 854 25.22 12.7 54.8 35 -2.5 27.6
21:55 1025 30.27 854 25.22 12.8 55 35 -2.1 28.2
22:00 1025 30.27 854 25.22 12.7 54.8 36 -2.1 28.2
22:05 1025 30.27 854 25.22 12.8 55.1 35 -2.2 28.1
22:10 1025 30.27 854 25.22 13.1 55.5 34 -2.4 27.7
22:15 1025 30.27 854 25.22 13.2 55.8 33 -2.5 27.4
22:20 1025 30.27 854 25.22 13.4 56.1 34 -2.2 28.1
22:25 1025 30.27 854 25.22 13.3 55.9 34 -2 28.4
22:30 1025 30.27 854 25.22 13 55.4 34 -2.3 27.9
22:35 1025 30.27 854 25.22 12.9 55.3 34 -2.4 27.7
22:40 1025 30.27 854 25.22 13.1 55.5 34 -2.5 27.6
22:45 1025 30.27 854 25.22 13 55.4 34 -2.2 28
22:50 1025 30.27 854 25.22 12.7 54.9 35 -2.2 28
22:55 1025 30.27 854 25.22 12.7 54.8 35 -2.2 28.1
23:00 1025 30.27 854 25.22 12.6 54.8 35 -2.2 28.1
23:05 1025 30.27 854 25.22 12.5 54.5 35 -2.6 27.4
23:10 1025 30.27 854 25.22 12.5 54.5 35 -2.3 27.8
23:15 1025 30.27 854 25.22 12.3 54.2 35 -2.8 27
23:20 1025 30.27 854 25.22 12.3 54.2 37 -1.9 28.6
23:25 1025 30.27 854 25.22 12.3 54.1 35 -2.6 27.2
23:30 1025 30.27 854 25.22 12.6 54.7 35 -2.3 27.9
23:35 1025 30.27 854 25.22 12.5 54.5 36 -2.2 28
23:40 1025 30.27 854 25.22 12.5 54.5 35 -2.6 27.3
23:45 1025 30.27 854 25.22 12.6 54.6 35 -2.6 27.4
23:50 1025 30.27 854 25.22 12.6 54.6 35 -2.4 27.7
23:55 1025 30.27 854 25.22 12.3 54.1 37 -2 28.4
24:00 1025 30.27 854 25.22 11.8 53.3 39 -1.7 28.9